sensor_id;sensor_type;location;lat;lon;timestamp;P1;durP1;ratioP1;P2;durP2;ratioP2
43990;SDS011;29654;50.784;20.604;2023-05-07T00:00:59;1.30;;;1.00;;
43990;SDS011;29654;50.784;20.604;2023-05-07T00:06:01;1.25;;;1.00;;
43990;SDS011;29654;50.784;20.604;2023-05-07T00:11:05;1.27;;;1.17;;
43990;SDS011;29654;50.784;20.604;2023-05-07T00:16:08;1.55;;;1.23;;
43990;SDS011;29654;50.784;20.604;2023-05-07T00:21:11;1.10;;;0.90;;
43990;SDS011;29654;50.784;20.604;2023-05-07T00:26:15;0.98;;;0.80;;
43990;SDS011;29654;50.784;20.604;2023-05-07T00:31:19;0.98;;;0.90;;
43990;SDS011;29654;50.784;20.604;2023-05-07T00:36:22;0.80;;;0.80;;
43990;SDS011;29654;50.784;20.604;2023-05-07T00:41:28;1.23;;;0.80;;
43990;SDS011;29654;50.784;20.604;2023-05-07T00:46:30;0.80;;;0.80;;
43990;SDS011;29654;50.784;20.604;2023-05-07T00:51:34;0.60;;;0.60;;
43990;SDS011;29654;50.784;20.604;2023-05-07T00:56:38;0.70;;;0.70;;
43990;SDS011;29654;50.784;20.604;2023-05-07T01:01:41;0.68;;;0.68;;
43990;SDS011;29654;50.784;20.604;2023-05-07T01:06:43;0.73;;;0.73;;
43990;SDS011;29654;50.784;20.604;2023-05-07T01:11:48;1.30;;;0.80;;
43990;SDS011;29654;50.784;20.604;2023-05-07T01:16:52;0.80;;;0.80;;
43990;SDS011;29654;50.784;20.604;2023-05-07T01:22:01;1.33;;;0.80;;
43990;SDS011;29654;50.784;20.604;2023-05-07T01:27:14;0.93;;;0.80;;
43990;SDS011;29654;50.784;20.604;2023-05-07T01:32:17;0.80;;;0.80;;
43990;SDS011;29654;50.784;20.604;2023-05-07T01:37:25;0.65;;;0.65;;
43990;SDS011;29654;50.784;20.604;2023-05-07T01:42:29;1.38;;;0.90;;
43990;SDS011;29654;50.784;20.604;2023-05-07T01:47:34;0.80;;;0.80;;
43990;SDS011;29654;50.784;20.604;2023-05-07T01:52:38;1.13;;;0.98;;
43990;SDS011;29654;50.784;20.604;2023-05-07T01:57:42;0.82;;;0.70;;
43990;SDS011;29654;50.784;20.604;2023-05-07T02:02:46;2.05;;;1.10;;
43990;SDS011;29654;50.784;20.604;2023-05-07T02:08:06;1.45;;;0.90;;
43990;SDS011;29654;50.784;20.604;2023-05-07T02:13:11;0.80;;;0.80;;
43990;SDS011;29654;50.784;20.604;2023-05-07T02:18:14;0.88;;;0.88;;
43990;SDS011;29654;50.784;20.604;2023-05-07T02:23:18;1.10;;;0.95;;
43990;SDS011;29654;50.784;20.604;2023-05-07T02:28:22;1.65;;;0.85;;
43990;SDS011;29654;50.784;20.604;2023-05-07T02:33:45;0.80;;;0.80;;
43990;SDS011;29654;50.784;20.604;2023-05-07T02:38:49;1.75;;;0.90;;
43990;SDS011;29654;50.784;20.604;2023-05-07T02:43:53;0.88;;;0.88;;
43990;SDS011;29654;50.784;20.604;2023-05-07T02:48:56;0.60;;;0.60;;
43990;SDS011;29654;50.784;20.604;2023-05-07T02:53:58;0.85;;;0.85;;
43990;SDS011;29654;50.784;20.604;2023-05-07T02:59:04;1.10;;;1.00;;
43990;SDS011;29654;50.784;20.604;2023-05-07T03:04:12;0.93;;;0.70;;
43990;SDS011;29654;50.784;20.604;2023-05-07T03:09:14;1.15;;;0.90;;
43990;SDS011;29654;50.784;20.604;2023-05-07T03:14:19;0.93;;;0.85;;
43990;SDS011;29654;50.784;20.604;2023-05-07T03:19:22;1.17;;;0.82;;
43990;SDS011;29654;50.784;20.604;2023-05-07T03:24:25;1.48;;;1.10;;
43990;SDS011;29654;50.784;20.604;2023-05-07T03:29:29;0.82;;;0.80;;
43990;SDS011;29654;50.784;20.604;2023-05-07T03:34:32;0.63;;;0.63;;
43990;SDS011;29654;50.784;20.604;2023-05-07T03:39:34;1.75;;;0.90;;
43990;SDS011;29654;50.784;20.604;2023-05-07T03:44:39;1.30;;;1.20;;
43990;SDS011;29654;50.784;20.604;2023-05-07T03:49:42;2.53;;;2.08;;
43990;SDS011;29654;50.784;20.604;2023-05-07T03:54:46;1.30;;;0.88;;
43990;SDS011;29654;50.784;20.604;2023-05-07T03:59:51;1.50;;;0.82;;
43990;SDS011;29654;50.784;20.604;2023-05-07T04:04:54;0.98;;;0.80;;
43990;SDS011;29654;50.784;20.604;2023-05-07T04:09:57;1.05;;;0.80;;
43990;SDS011;29654;50.784;20.604;2023-05-07T04:15:01;0.70;;;0.70;;
43990;SDS011;29654;50.784;20.604;2023-05-07T04:20:05;1.45;;;0.70;;
43990;SDS011;29654;50.784;20.604;2023-05-07T04:25:11;0.63;;;0.63;;
43990;SDS011;29654;50.784;20.604;2023-05-07T04:30:15;0.68;;;0.60;;
43990;SDS011;29654;50.784;20.604;2023-05-07T04:35:18;1.00;;;0.77;;
43990;SDS011;29654;50.784;20.604;2023-05-07T04:40:21;0.73;;;0.70;;
43990;SDS011;29654;50.784;20.604;2023-05-07T04:45:26;0.60;;;0.60;;
43990;SDS011;29654;50.784;20.604;2023-05-07T04:50:29;0.80;;;0.80;;
43990;SDS011;29654;50.784;20.604;2023-05-07T04:55:36;0.68;;;0.63;;
43990;SDS011;29654;50.784;20.604;2023-05-07T05:00:41;0.95;;;0.70;;
43990;SDS011;29654;50.784;20.604;2023-05-07T05:05:46;0.80;;;0.80;;
43990;SDS011;29654;50.784;20.604;2023-05-07T05:10:50;2.10;;;1.42;;
43990;SDS011;29654;50.784;20.604;2023-05-07T05:15:54;1.42;;;1.10;;
43990;SDS011;29654;50.784;20.604;2023-05-07T05:20:59;1.75;;;1.00;;
43990;SDS011;29654;50.784;20.604;2023-05-07T05:26:03;1.08;;;0.90;;
43990;SDS011;29654;50.784;20.604;2023-05-07T05:31:09;1.05;;;0.95;;
43990;SDS011;29654;50.784;20.604;2023-05-07T05:36:11;0.80;;;0.73;;
43990;SDS011;29654;50.784;20.604;2023-05-07T05:41:16;0.80;;;0.80;;
43990;SDS011;29654;50.784;20.604;2023-05-07T05:46:20;1.08;;;1.05;;
43990;SDS011;29654;50.784;20.604;2023-05-07T05:51:25;2.10;;;1.50;;
43990;SDS011;29654;50.784;20.604;2023-05-07T05:56:28;1.08;;;0.82;;
43990;SDS011;29654;50.784;20.604;2023-05-07T06:01:32;1.25;;;1.15;;
43990;SDS011;29654;50.784;20.604;2023-05-07T06:06:37;1.98;;;1.20;;
43990;SDS011;29654;50.784;20.604;2023-05-07T06:11:40;1.42;;;1.33;;
43990;SDS011;29654;50.784;20.604;2023-05-07T06:16:46;1.92;;;1.45;;
43990;SDS011;29654;50.784;20.604;2023-05-07T06:21:49;1.80;;;1.50;;
43990;SDS011;29654;50.784;20.604;2023-05-07T06:26:51;2.15;;;1.60;;
43990;SDS011;29654;50.784;20.604;2023-05-07T06:31:56;1.70;;;1.45;;
43990;SDS011;29654;50.784;20.604;2023-05-07T06:36:58;2.72;;;1.48;;
43990;SDS011;29654;50.784;20.604;2023-05-07T06:42:13;1.50;;;1.30;;
43990;SDS011;29654;50.784;20.604;2023-05-07T06:47:21;1.65;;;1.27;;
43990;SDS011;29654;50.784;20.604;2023-05-07T06:52:27;1.27;;;1.17;;
43990;SDS011;29654;50.784;20.604;2023-05-07T06:57:30;1.42;;;1.02;;
43990;SDS011;29654;50.784;20.604;2023-05-07T07:02:34;1.60;;;1.50;;
43990;SDS011;29654;50.784;20.604;2023-05-07T07:07:38;1.00;;;1.00;;
43990;SDS011;29654;50.784;20.604;2023-05-07T07:12:41;1.60;;;1.40;;
43990;SDS011;29654;50.784;20.604;2023-05-07T07:17:45;0.90;;;0.90;;
43990;SDS011;29654;50.784;20.604;2023-05-07T07:22:48;1.17;;;1.08;;
43990;SDS011;29654;50.784;20.604;2023-05-07T07:27:51;1.35;;;0.95;;
43990;SDS011;29654;50.784;20.604;2023-05-07T07:32:57;2.20;;;1.05;;
43990;SDS011;29654;50.784;20.604;2023-05-07T07:38:03;1.25;;;1.15;;
43990;SDS011;29654;50.784;20.604;2023-05-07T07:43:06;1.70;;;1.30;;
43990;SDS011;29654;50.784;20.604;2023-05-07T07:48:10;1.52;;;1.00;;
43990;SDS011;29654;50.784;20.604;2023-05-07T07:53:13;2.50;;;2.25;;
43990;SDS011;29654;50.784;20.604;2023-05-07T07:58:16;1.08;;;1.02;;
43990;SDS011;29654;50.784;20.604;2023-05-07T08:03:20;1.63;;;0.90;;
43990;SDS011;29654;50.784;20.604;2023-05-07T08:08:27;1.60;;;1.02;;
43990;SDS011;29654;50.784;20.604;2023-05-07T08:13:30;1.40;;;1.30;;
43990;SDS011;29654;50.784;20.604;2023-05-07T08:18:35;2.22;;;1.80;;
43990;SDS011;29654;50.784;20.604;2023-05-07T08:23:38;2.42;;;1.38;;
43990;SDS011;29654;50.784;20.604;2023-05-07T08:28:41;1.90;;;1.70;;
43990;SDS011;29654;50.784;20.604;2023-05-07T08:33:46;2.85;;;1.92;;
43990;SDS011;29654;50.784;20.604;2023-05-07T08:38:49;1.23;;;1.13;;
43990;SDS011;29654;50.784;20.604;2023-05-07T08:43:51;17.15;;;9.85;;
43990;SDS011;29654;50.784;20.604;2023-05-07T08:48:57;4.35;;;2.58;;
43990;SDS011;29654;50.784;20.604;2023-05-07T08:54:01;2.88;;;2.20;;
43990;SDS011;29654;50.784;20.604;2023-05-07T08:59:07;1.90;;;1.60;;
43990;SDS011;29654;50.784;20.604;2023-05-07T09:04:11;3.42;;;2.42;;
43990;SDS011;29654;50.784;20.604;2023-05-07T09:09:16;4.40;;;2.80;;
43990;SDS011;29654;50.784;20.604;2023-05-07T09:14:21;4.30;;;3.22;;
43990;SDS011;29654;50.784;20.604;2023-05-07T09:19:26;3.95;;;2.13;;
43990;SDS011;29654;50.784;20.604;2023-05-07T09:24:31;2.50;;;2.10;;
43990;SDS011;29654;50.784;20.604;2023-05-07T09:29:38;1.77;;;1.67;;
43990;SDS011;29654;50.784;20.604;2023-05-07T09:34:42;2.78;;;2.10;;
43990;SDS011;29654;50.784;20.604;2023-05-07T09:39:48;1.70;;;1.40;;
43990;SDS011;29654;50.784;20.604;2023-05-07T09:44:55;1.20;;;1.10;;
43990;SDS011;29654;50.784;20.604;2023-05-07T09:50:03;1.52;;;1.30;;
43990;SDS011;29654;50.784;20.604;2023-05-07T09:55:11;1.58;;;1.35;;
43990;SDS011;29654;50.784;20.604;2023-05-07T10:00:16;1.15;;;1.02;;
43990;SDS011;29654;50.784;20.604;2023-05-07T10:05:22;1.65;;;1.55;;
43990;SDS011;29654;50.784;20.604;2023-05-07T10:10:30;2.40;;;2.20;;
43990;SDS011;29654;50.784;20.604;2023-05-07T10:15:35;2.42;;;1.70;;
43990;SDS011;29654;50.784;20.604;2023-05-07T10:20:40;2.22;;;2.03;;
43990;SDS011;29654;50.784;20.604;2023-05-07T10:25:47;1.50;;;1.40;;
43990;SDS011;29654;50.784;20.604;2023-05-07T10:30:58;1.25;;;1.15;;
43990;SDS011;29654;50.784;20.604;2023-05-07T10:36:20;1.85;;;1.60;;
43990;SDS011;29654;50.784;20.604;2023-05-07T10:41:26;1.77;;;1.60;;
43990;SDS011;29654;50.784;20.604;2023-05-07T10:46:29;1.65;;;1.52;;
43990;SDS011;29654;50.784;20.604;2023-05-07T10:51:43;1.92;;;1.50;;
43990;SDS011;29654;50.784;20.604;2023-05-07T10:56:59;1.67;;;1.58;;
43990;SDS011;29654;50.784;20.604;2023-05-07T11:03:05;1.60;;;1.50;;
43990;SDS011;29654;50.784;20.604;2023-05-07T11:08:23;10.13;;;6.47;;
43990;SDS011;29654;50.784;20.604;2023-05-07T11:13:45;4.93;;;3.00;;
43990;SDS011;29654;50.784;20.604;2023-05-07T11:19:08;2.30;;;2.10;;
43990;SDS011;29654;50.784;20.604;2023-05-07T11:24:16;2.30;;;2.10;;
43990;SDS011;29654;50.784;20.604;2023-05-07T11:29:28;4.97;;;3.75;;
43990;SDS011;29654;50.784;20.604;2023-05-07T11:34:45;3.60;;;3.30;;
43990;SDS011;29654;50.784;20.604;2023-05-07T11:40:02;7.10;;;5.15;;
43990;SDS011;29654;50.784;20.604;2023-05-07T11:45:07;4.95;;;3.60;;
43990;SDS011;29654;50.784;20.604;2023-05-07T11:50:11;3.90;;;3.20;;
43990;SDS011;29654;50.784;20.604;2023-05-07T11:55:13;3.45;;;2.72;;
43990;SDS011;29654;50.784;20.604;2023-05-07T12:00:23;2.95;;;2.75;;
43990;SDS011;29654;50.784;20.604;2023-05-07T12:05:26;2.72;;;2.50;;
43990;SDS011;29654;50.784;20.604;2023-05-07T12:10:30;3.80;;;3.42;;
43990;SDS011;29654;50.784;20.604;2023-05-07T12:15:36;2.90;;;2.70;;
43990;SDS011;29654;50.784;20.604;2023-05-07T12:20:38;3.25;;;2.97;;
43990;SDS011;29654;50.784;20.604;2023-05-07T12:25:42;4.05;;;3.22;;
43990;SDS011;29654;50.784;20.604;2023-05-07T12:30:50;3.95;;;3.65;;
43990;SDS011;29654;50.784;20.604;2023-05-07T12:35:54;4.10;;;3.70;;
43990;SDS011;29654;50.784;20.604;2023-05-07T12:40:57;6.65;;;3.40;;
43990;SDS011;29654;50.784;20.604;2023-05-07T12:46:01;4.88;;;4.38;;
43990;SDS011;29654;50.784;20.604;2023-05-07T12:51:07;6.40;;;4.55;;
43990;SDS011;29654;50.784;20.604;2023-05-07T12:56:11;4.05;;;3.70;;
43990;SDS011;29654;50.784;20.604;2023-05-07T13:01:18;3.70;;;3.40;;
43990;SDS011;29654;50.784;20.604;2023-05-07T13:06:22;4.25;;;3.60;;
43990;SDS011;29654;50.784;20.604;2023-05-07T13:11:24;3.40;;;3.10;;
43990;SDS011;29654;50.784;20.604;2023-05-07T13:16:28;3.45;;;3.03;;
43990;SDS011;29654;50.784;20.604;2023-05-07T13:21:31;3.80;;;3.22;;
43990;SDS011;29654;50.784;20.604;2023-05-07T13:26:34;4.45;;;3.55;;
43990;SDS011;29654;50.784;20.604;2023-05-07T13:31:37;3.95;;;3.45;;
43990;SDS011;29654;50.784;20.604;2023-05-07T13:36:43;3.97;;;3.58;;
43990;SDS011;29654;50.784;20.604;2023-05-07T13:41:45;5.22;;;3.40;;
43990;SDS011;29654;50.784;20.604;2023-05-07T13:46:49;3.90;;;3.42;;
43990;SDS011;29654;50.784;20.604;2023-05-07T13:51:52;3.50;;;3.20;;
43990;SDS011;29654;50.784;20.604;2023-05-07T13:56:55;2.72;;;2.53;;
43990;SDS011;29654;50.784;20.604;2023-05-07T14:01:59;3.20;;;2.70;;
43990;SDS011;29654;50.784;20.604;2023-05-07T14:07:03;3.28;;;2.60;;
43990;SDS011;29654;50.784;20.604;2023-05-07T14:12:07;3.25;;;2.63;;
43990;SDS011;29654;50.784;20.604;2023-05-07T14:17:11;3.58;;;2.75;;
43990;SDS011;29654;50.784;20.604;2023-05-07T14:22:13;3.58;;;2.95;;
43990;SDS011;29654;50.784;20.604;2023-05-07T14:27:16;4.07;;;3.53;;
43990;SDS011;29654;50.784;20.604;2023-05-07T14:32:20;4.93;;;3.00;;
43990;SDS011;29654;50.784;20.604;2023-05-07T14:37:24;2.60;;;2.40;;
43990;SDS011;29654;50.784;20.604;2023-05-07T14:42:27;2.70;;;2.50;;
43990;SDS011;29654;50.784;20.604;2023-05-07T14:47:32;2.72;;;2.45;;
43990;SDS011;29654;50.784;20.604;2023-05-07T14:52:35;2.47;;;2.28;;
43990;SDS011;29654;50.784;20.604;2023-05-07T14:57:38;2.63;;;2.42;;
43990;SDS011;29654;50.784;20.604;2023-05-07T15:02:43;3.22;;;2.63;;
43990;SDS011;29654;50.784;20.604;2023-05-07T15:07:45;2.50;;;2.30;;
43990;SDS011;29654;50.784;20.604;2023-05-07T15:12:48;2.25;;;2.05;;
43990;SDS011;29654;50.784;20.604;2023-05-07T15:17:52;1.95;;;1.80;;
43990;SDS011;29654;50.784;20.604;2023-05-07T15:22:55;3.25;;;2.15;;
43990;SDS011;29654;50.784;20.604;2023-05-07T15:27:58;2.55;;;2.35;;
43990;SDS011;29654;50.784;20.604;2023-05-07T15:33:02;2.50;;;2.30;;
43990;SDS011;29654;50.784;20.604;2023-05-07T15:38:05;2.38;;;2.17;;
43990;SDS011;29654;50.784;20.604;2023-05-07T15:43:09;4.20;;;3.20;;
43990;SDS011;29654;50.784;20.604;2023-05-07T15:48:14;3.05;;;2.70;;
43990;SDS011;29654;50.784;20.604;2023-05-07T15:53:16;3.22;;;2.92;;
43990;SDS011;29654;50.784;20.604;2023-05-07T15:58:19;2.90;;;2.42;;
43990;SDS011;29654;50.784;20.604;2023-05-07T16:03:23;2.85;;;2.65;;
43990;SDS011;29654;50.784;20.604;2023-05-07T16:08:26;3.30;;;3.00;;
43990;SDS011;29654;50.784;20.604;2023-05-07T16:13:30;3.70;;;2.75;;
43990;SDS011;29654;50.784;20.604;2023-05-07T16:18:33;2.70;;;2.50;;
43990;SDS011;29654;50.784;20.604;2023-05-07T16:23:36;2.95;;;2.60;;
43990;SDS011;29654;50.784;20.604;2023-05-07T16:28:39;2.88;;;2.65;;
43990;SDS011;29654;50.784;20.604;2023-05-07T16:33:43;2.45;;;2.25;;
43990;SDS011;29654;50.784;20.604;2023-05-07T16:38:45;3.55;;;3.25;;
43990;SDS011;29654;50.784;20.604;2023-05-07T16:43:48;2.97;;;2.78;;
43990;SDS011;29654;50.784;20.604;2023-05-07T16:48:52;3.50;;;3.13;;
43990;SDS011;29654;50.784;20.604;2023-05-07T16:53:55;3.25;;;2.90;;
43990;SDS011;29654;50.784;20.604;2023-05-07T16:58:58;4.35;;;3.95;;
43990;SDS011;29654;50.784;20.604;2023-05-07T17:04:01;3.92;;;3.53;;
43990;SDS011;29654;50.784;20.604;2023-05-07T17:09:04;3.60;;;3.20;;
43990;SDS011;29654;50.784;20.604;2023-05-07T17:14:08;3.33;;;3.00;;
43990;SDS011;29654;50.784;20.604;2023-05-07T17:19:12;4.38;;;3.97;;
43990;SDS011;29654;50.784;20.604;2023-05-07T17:24:14;4.72;;;3.05;;
43990;SDS011;29654;50.784;20.604;2023-05-07T17:29:18;3.33;;;2.58;;
43990;SDS011;29654;50.784;20.604;2023-05-07T17:34:22;3.72;;;3.35;;
43990;SDS011;29654;50.784;20.604;2023-05-07T17:39:24;3.30;;;3.00;;
43990;SDS011;29654;50.784;20.604;2023-05-07T17:44:27;4.07;;;3.67;;
43990;SDS011;29654;50.784;20.604;2023-05-07T17:49:31;3.88;;;3.15;;
43990;SDS011;29654;50.784;20.604;2023-05-07T17:54:34;5.53;;;4.03;;
43990;SDS011;29654;50.784;20.604;2023-05-07T17:59:36;6.05;;;5.30;;
43990;SDS011;29654;50.784;20.604;2023-05-07T18:04:41;6.68;;;5.85;;
43990;SDS011;29654;50.784;20.604;2023-05-07T18:09:43;7.63;;;6.50;;
43990;SDS011;29654;50.784;20.604;2023-05-07T18:14:46;4.13;;;3.70;;
43990;SDS011;29654;50.784;20.604;2023-05-07T18:19:50;4.57;;;3.92;;
43990;SDS011;29654;50.784;20.604;2023-05-07T18:24:53;7.13;;;6.43;;
43990;SDS011;29654;50.784;20.604;2023-05-07T18:29:56;6.22;;;3.58;;
43990;SDS011;29654;50.784;20.604;2023-05-07T18:35:00;4.63;;;4.13;;
43990;SDS011;29654;50.784;20.604;2023-05-07T18:40:03;4.20;;;3.25;;
43990;SDS011;29654;50.784;20.604;2023-05-07T18:45:07;3.95;;;3.17;;
43990;SDS011;29654;50.784;20.604;2023-05-07T18:50:12;3.28;;;2.97;;
43990;SDS011;29654;50.784;20.604;2023-05-07T18:55:15;4.13;;;2.80;;
43990;SDS011;29654;50.784;20.604;2023-05-07T19:00:21;4.72;;;3.92;;
43990;SDS011;29654;50.784;20.604;2023-05-07T19:05:25;5.60;;;4.25;;
43990;SDS011;29654;50.784;20.604;2023-05-07T19:10:28;6.65;;;3.85;;
43990;SDS011;29654;50.784;20.604;2023-05-07T19:15:30;10.38;;;4.55;;
43990;SDS011;29654;50.784;20.604;2023-05-07T19:20:34;4.22;;;3.05;;
43990;SDS011;29654;50.784;20.604;2023-05-07T19:25:37;4.10;;;3.20;;
43990;SDS011;29654;50.784;20.604;2023-05-07T19:30:39;4.32;;;3.13;;
43990;SDS011;29654;50.784;20.604;2023-05-07T19:35:43;5.72;;;4.13;;
43990;SDS011;29654;50.784;20.604;2023-05-07T19:40:46;5.90;;;4.53;;
43990;SDS011;29654;50.784;20.604;2023-05-07T19:45:51;7.20;;;6.00;;
43990;SDS011;29654;50.784;20.604;2023-05-07T19:50:55;6.88;;;5.25;;
43990;SDS011;29654;50.784;20.604;2023-05-07T19:56:01;4.55;;;4.03;;
43990;SDS011;29654;50.784;20.604;2023-05-07T20:01:05;5.45;;;3.95;;
43990;SDS011;29654;50.784;20.604;2023-05-07T20:06:09;4.97;;;3.20;;
43990;SDS011;29654;50.784;20.604;2023-05-07T20:11:13;4.22;;;3.42;;
43990;SDS011;29654;50.784;20.604;2023-05-07T20:16:15;4.10;;;3.63;;
43990;SDS011;29654;50.784;20.604;2023-05-07T20:21:19;3.47;;;3.17;;
43990;SDS011;29654;50.784;20.604;2023-05-07T20:26:23;3.78;;;3.47;;
43990;SDS011;29654;50.784;20.604;2023-05-07T20:31:26;4.25;;;3.45;;
43990;SDS011;29654;50.784;20.604;2023-05-07T20:36:32;3.65;;;3.35;;
43990;SDS011;29654;50.784;20.604;2023-05-07T20:41:35;3.58;;;3.28;;
43990;SDS011;29654;50.784;20.604;2023-05-07T20:46:37;3.22;;;2.97;;
43990;SDS011;29654;50.784;20.604;2023-05-07T20:51:41;4.40;;;3.42;;
43990;SDS011;29654;50.784;20.604;2023-05-07T20:56:44;3.38;;;2.88;;
43990;SDS011;29654;50.784;20.604;2023-05-07T21:01:47;4.03;;;3.20;;
43990;SDS011;29654;50.784;20.604;2023-05-07T21:06:51;3.40;;;3.10;;
43990;SDS011;29654;50.784;20.604;2023-05-07T21:11:54;2.95;;;2.72;;
43990;SDS011;29654;50.784;20.604;2023-05-07T21:16:57;3.30;;;3.00;;
43990;SDS011;29654;50.784;20.604;2023-05-07T21:22:01;3.28;;;2.88;;
43990;SDS011;29654;50.784;20.604;2023-05-07T21:27:04;3.40;;;3.10;;
43990;SDS011;29654;50.784;20.604;2023-05-07T21:32:07;3.35;;;3.00;;
43990;SDS011;29654;50.784;20.604;2023-05-07T21:37:10;3.40;;;2.80;;
43990;SDS011;29654;50.784;20.604;2023-05-07T21:42:14;3.63;;;2.65;;
43990;SDS011;29654;50.784;20.604;2023-05-07T21:47:17;3.67;;;2.85;;
43990;SDS011;29654;50.784;20.604;2023-05-07T21:52:21;3.80;;;3.15;;
43990;SDS011;29654;50.784;20.604;2023-05-07T21:57:25;3.35;;;3.05;;
43990;SDS011;29654;50.784;20.604;2023-05-07T22:02:28;2.83;;;2.63;;
43990;SDS011;29654;50.784;20.604;2023-05-07T22:07:57;3.42;;;3.13;;
43990;SDS011;29654;50.784;20.604;2023-05-07T22:13:00;3.88;;;3.53;;
43990;SDS011;29654;50.784;20.604;2023-05-07T22:18:02;4.65;;;4.25;;
43990;SDS011;29654;50.784;20.604;2023-05-07T22:23:07;3.30;;;3.00;;
43990;SDS011;29654;50.784;20.604;2023-05-07T22:28:09;3.53;;;3.22;;
43990;SDS011;29654;50.784;20.604;2023-05-07T22:33:12;3.25;;;2.95;;
43990;SDS011;29654;50.784;20.604;2023-05-07T22:38:16;4.32;;;2.90;;
43990;SDS011;29654;50.784;20.604;2023-05-07T22:43:18;3.50;;;3.20;;
43990;SDS011;29654;50.784;20.604;2023-05-07T22:48:21;4.00;;;2.90;;
43990;SDS011;29654;50.784;20.604;2023-05-07T22:53:25;2.47;;;2.28;;
43990;SDS011;29654;50.784;20.604;2023-05-07T22:58:28;2.78;;;2.58;;
43990;SDS011;29654;50.784;20.604;2023-05-07T23:03:30;3.28;;;2.22;;
43990;SDS011;29654;50.784;20.604;2023-05-07T23:08:34;2.42;;;2.22;;
43990;SDS011;29654;50.784;20.604;2023-05-07T23:13:37;2.95;;;2.47;;
43990;SDS011;29654;50.784;20.604;2023-05-07T23:18:39;2.30;;;2.10;;
43990;SDS011;29654;50.784;20.604;2023-05-07T23:23:43;2.80;;;2.60;;
43990;SDS011;29654;50.784;20.604;2023-05-07T23:28:46;2.72;;;2.53;;
43990;SDS011;29654;50.784;20.604;2023-05-07T23:33:49;3.30;;;2.45;;
43990;SDS011;29654;50.784;20.604;2023-05-07T23:38:53;3.30;;;3.00;;
43990;SDS011;29654;50.784;20.604;2023-05-07T23:43:56;4.13;;;2.80;;
43990;SDS011;29654;50.784;20.604;2023-05-07T23:48:59;3.50;;;2.70;;
43990;SDS011;29654;50.784;20.604;2023-05-07T23:54:03;3.42;;;3.13;;
43990;SDS011;29654;50.784;20.604;2023-05-07T23:59:05;3.75;;;3.00;;
